sensor_id;sensor_type;location;lat;lon;timestamp;P1;durP1;ratioP1;P2;durP2;ratioP2
13698;SDS011;6921;53.642;9.956;2022-11-06T00:00:18;6.27;;;3.90;;
13698;SDS011;6921;53.642;9.956;2022-11-06T00:02:21;4.80;;;3.67;;
13698;SDS011;6921;53.642;9.956;2022-11-06T00:04:27;5.87;;;3.63;;
13698;SDS011;6921;53.642;9.956;2022-11-06T00:06:30;6.93;;;3.90;;
13698;SDS011;6921;53.642;9.956;2022-11-06T00:08:50;8.87;;;3.50;;
13698;SDS011;6921;53.642;9.956;2022-11-06T00:10:53;6.37;;;3.83;;
13698;SDS011;6921;53.642;9.956;2022-11-06T00:12:58;6.73;;;3.80;;
13698;SDS011;6921;53.642;9.956;2022-11-06T00:15:01;8.63;;;3.73;;
13698;SDS011;6921;53.642;9.956;2022-11-06T00:17:04;5.63;;;3.67;;
13698;SDS011;6921;53.642;9.956;2022-11-06T00:19:07;3.93;;;3.50;;
13698;SDS011;6921;53.642;9.956;2022-11-06T00:21:11;5.30;;;3.50;;
13698;SDS011;6921;53.642;9.956;2022-11-06T00:23:15;6.30;;;3.60;;
13698;SDS011;6921;53.642;9.956;2022-11-06T00:25:20;7.27;;;3.57;;
13698;SDS011;6921;53.642;9.956;2022-11-06T00:27:23;4.70;;;3.30;;
13698;SDS011;6921;53.642;9.956;2022-11-06T00:29:26;5.03;;;3.50;;
13698;SDS011;6921;53.642;9.956;2022-11-06T00:31:30;6.43;;;3.27;;
13698;SDS011;6921;53.642;9.956;2022-11-06T00:33:33;6.83;;;3.30;;
13698;SDS011;6921;53.642;9.956;2022-11-06T00:35:37;5.53;;;3.50;;
13698;SDS011;6921;53.642;9.956;2022-11-06T00:37:40;7.00;;;3.30;;
13698;SDS011;6921;53.642;9.956;2022-11-06T00:39:43;5.10;;;3.30;;
13698;SDS011;6921;53.642;9.956;2022-11-06T00:41:48;3.87;;;3.17;;
13698;SDS011;6921;53.642;9.956;2022-11-06T00:43:52;5.13;;;3.27;;
13698;SDS011;6921;53.642;9.956;2022-11-06T00:45:59;5.60;;;3.60;;
13698;SDS011;6921;53.642;9.956;2022-11-06T00:48:02;6.33;;;3.37;;
13698;SDS011;6921;53.642;9.956;2022-11-06T00:50:06;4.97;;;3.50;;
13698;SDS011;6921;53.642;9.956;2022-11-06T00:52:09;6.07;;;3.37;;
13698;SDS011;6921;53.642;9.956;2022-11-06T00:54:13;6.33;;;3.00;;
13698;SDS011;6921;53.642;9.956;2022-11-06T00:56:17;5.93;;;3.40;;
13698;SDS011;6921;53.642;9.956;2022-11-06T00:58:22;7.30;;;3.60;;
13698;SDS011;6921;53.642;9.956;2022-11-06T01:00:25;5.90;;;3.50;;
13698;SDS011;6921;53.642;9.956;2022-11-06T01:02:28;5.63;;;3.37;;
13698;SDS011;6921;53.642;9.956;2022-11-06T01:04:31;4.90;;;3.20;;
13698;SDS011;6921;53.642;9.956;2022-11-06T01:06:35;7.20;;;3.20;;
13698;SDS011;6921;53.642;9.956;2022-11-06T01:08:39;5.80;;;3.50;;
13698;SDS011;6921;53.642;9.956;2022-11-06T01:10:42;4.23;;;3.40;;
13698;SDS011;6921;53.642;9.956;2022-11-06T01:12:46;6.07;;;3.43;;
13698;SDS011;6921;53.642;9.956;2022-11-06T01:14:50;4.93;;;3.10;;
13698;SDS011;6921;53.642;9.956;2022-11-06T01:16:54;6.60;;;3.33;;
13698;SDS011;6921;53.642;9.956;2022-11-06T01:18:57;4.73;;;3.50;;
13698;SDS011;6921;53.642;9.956;2022-11-06T01:21:02;8.27;;;3.27;;
13698;SDS011;6921;53.642;9.956;2022-11-06T01:23:06;4.17;;;2.80;;
13698;SDS011;6921;53.642;9.956;2022-11-06T01:25:09;7.77;;;3.33;;
13698;SDS011;6921;53.642;9.956;2022-11-06T01:27:12;5.43;;;2.80;;
13698;SDS011;6921;53.642;9.956;2022-11-06T01:29:31;5.07;;;3.17;;
13698;SDS011;6921;53.642;9.956;2022-11-06T01:31:35;4.97;;;3.10;;
13698;SDS011;6921;53.642;9.956;2022-11-06T01:33:39;6.43;;;3.20;;
13698;SDS011;6921;53.642;9.956;2022-11-06T01:35:43;6.17;;;3.40;;
13698;SDS011;6921;53.642;9.956;2022-11-06T01:37:46;6.03;;;3.30;;
13698;SDS011;6921;53.642;9.956;2022-11-06T01:39:49;8.03;;;3.40;;
13698;SDS011;6921;53.642;9.956;2022-11-06T01:41:53;3.83;;;2.83;;
13698;SDS011;6921;53.642;9.956;2022-11-06T01:43:57;5.00;;;3.30;;
13698;SDS011;6921;53.642;9.956;2022-11-06T01:46:00;5.50;;;3.33;;
13698;SDS011;6921;53.642;9.956;2022-11-06T01:48:05;5.50;;;3.27;;
13698;SDS011;6921;53.642;9.956;2022-11-06T01:50:08;5.17;;;3.50;;
13698;SDS011;6921;53.642;9.956;2022-11-06T01:52:12;6.00;;;2.80;;
13698;SDS011;6921;53.642;9.956;2022-11-06T01:54:16;5.50;;;3.30;;
13698;SDS011;6921;53.642;9.956;2022-11-06T01:56:20;6.03;;;3.30;;
13698;SDS011;6921;53.642;9.956;2022-11-06T01:58:25;8.33;;;4.20;;
13698;SDS011;6921;53.642;9.956;2022-11-06T02:00:29;6.57;;;3.40;;
13698;SDS011;6921;53.642;9.956;2022-11-06T02:02:32;3.87;;;3.00;;
13698;SDS011;6921;53.642;9.956;2022-11-06T02:04:39;5.03;;;3.03;;
13698;SDS011;6921;53.642;9.956;2022-11-06T02:06:43;3.93;;;3.47;;
13698;SDS011;6921;53.642;9.956;2022-11-06T02:08:48;7.70;;;3.20;;
13698;SDS011;6921;53.642;9.956;2022-11-06T02:10:52;5.87;;;3.30;;
13698;SDS011;6921;53.642;9.956;2022-11-06T02:13:01;5.83;;;3.80;;
13698;SDS011;6921;53.642;9.956;2022-11-06T02:15:07;5.00;;;3.60;;
13698;SDS011;6921;53.642;9.956;2022-11-06T02:17:16;8.03;;;3.60;;
13698;SDS011;6921;53.642;9.956;2022-11-06T02:19:26;6.37;;;3.73;;
13698;SDS011;6921;53.642;9.956;2022-11-06T02:21:50;6.67;;;3.03;;
13698;SDS011;6921;53.642;9.956;2022-11-06T02:26:22;6.00;;;3.20;;
13698;SDS011;6921;53.642;9.956;2022-11-06T02:28:30;6.20;;;3.60;;
13698;SDS011;6921;53.642;9.956;2022-11-06T02:30:35;6.23;;;3.40;;
13698;SDS011;6921;53.642;9.956;2022-11-06T02:32:41;5.93;;;3.17;;
13698;SDS011;6921;53.642;9.956;2022-11-06T02:34:46;8.03;;;3.60;;
13698;SDS011;6921;53.642;9.956;2022-11-06T02:36:50;5.50;;;3.30;;
13698;SDS011;6921;53.642;9.956;2022-11-06T02:38:56;6.87;;;3.73;;
13698;SDS011;6921;53.642;9.956;2022-11-06T02:41:01;5.77;;;3.17;;
13698;SDS011;6921;53.642;9.956;2022-11-06T02:43:08;4.70;;;3.43;;
13698;SDS011;6921;53.642;9.956;2022-11-06T02:45:13;6.40;;;3.53;;
13698;SDS011;6921;53.642;9.956;2022-11-06T02:47:18;6.50;;;3.60;;
13698;SDS011;6921;53.642;9.956;2022-11-06T02:49:23;6.33;;;3.50;;
13698;SDS011;6921;53.642;9.956;2022-11-06T02:51:29;5.17;;;3.33;;
13698;SDS011;6921;53.642;9.956;2022-11-06T02:53:33;4.77;;;3.20;;
13698;SDS011;6921;53.642;9.956;2022-11-06T02:55:39;5.23;;;3.30;;
13698;SDS011;6921;53.642;9.956;2022-11-06T02:57:45;9.83;;;3.63;;
13698;SDS011;6921;53.642;9.956;2022-11-06T02:59:50;9.00;;;2.90;;
13698;SDS011;6921;53.642;9.956;2022-11-06T03:01:56;4.33;;;3.17;;
13698;SDS011;6921;53.642;9.956;2022-11-06T03:04:02;5.03;;;3.50;;
13698;SDS011;6921;53.642;9.956;2022-11-06T03:06:06;6.67;;;3.30;;
13698;SDS011;6921;53.642;9.956;2022-11-06T03:08:12;3.83;;;3.13;;
13698;SDS011;6921;53.642;9.956;2022-11-06T03:10:17;5.30;;;3.37;;
13698;SDS011;6921;53.642;9.956;2022-11-06T03:12:22;4.07;;;3.47;;
13698;SDS011;6921;53.642;9.956;2022-11-06T03:14:28;4.73;;;3.30;;
13698;SDS011;6921;53.642;9.956;2022-11-06T03:16:37;6.33;;;3.67;;
13698;SDS011;6921;53.642;9.956;2022-11-06T03:18:44;6.50;;;3.40;;
13698;SDS011;6921;53.642;9.956;2022-11-06T03:20:51;5.63;;;3.30;;
13698;SDS011;6921;53.642;9.956;2022-11-06T03:23:01;4.53;;;3.10;;
13698;SDS011;6921;53.642;9.956;2022-11-06T03:25:08;6.27;;;3.60;;
13698;SDS011;6921;53.642;9.956;2022-11-06T03:27:14;5.33;;;3.10;;
13698;SDS011;6921;53.642;9.956;2022-11-06T03:29:20;4.70;;;3.23;;
13698;SDS011;6921;53.642;9.956;2022-11-06T03:31:25;6.07;;;3.17;;
13698;SDS011;6921;53.642;9.956;2022-11-06T03:33:31;6.33;;;3.57;;
13698;SDS011;6921;53.642;9.956;2022-11-06T03:35:37;9.00;;;3.37;;
13698;SDS011;6921;53.642;9.956;2022-11-06T03:37:43;4.43;;;3.07;;
13698;SDS011;6921;53.642;9.956;2022-11-06T03:39:48;5.53;;;3.20;;
13698;SDS011;6921;53.642;9.956;2022-11-06T03:41:55;5.93;;;3.40;;
13698;SDS011;6921;53.642;9.956;2022-11-06T03:44:01;5.67;;;3.80;;
13698;SDS011;6921;53.642;9.956;2022-11-06T03:46:10;5.90;;;3.23;;
13698;SDS011;6921;53.642;9.956;2022-11-06T03:48:15;5.03;;;3.20;;
13698;SDS011;6921;53.642;9.956;2022-11-06T03:50:22;5.27;;;3.10;;
13698;SDS011;6921;53.642;9.956;2022-11-06T03:52:29;4.70;;;3.00;;
13698;SDS011;6921;53.642;9.956;2022-11-06T03:54:34;7.03;;;3.47;;
13698;SDS011;6921;53.642;9.956;2022-11-06T03:56:40;4.00;;;3.07;;
13698;SDS011;6921;53.642;9.956;2022-11-06T03:58:45;9.60;;;3.40;;
13698;SDS011;6921;53.642;9.956;2022-11-06T04:00:50;6.57;;;3.20;;
13698;SDS011;6921;53.642;9.956;2022-11-06T04:02:56;6.60;;;3.20;;
13698;SDS011;6921;53.642;9.956;2022-11-06T04:05:06;5.50;;;3.33;;
13698;SDS011;6921;53.642;9.956;2022-11-06T04:07:11;5.60;;;3.43;;
13698;SDS011;6921;53.642;9.956;2022-11-06T04:09:17;4.97;;;3.27;;
13698;SDS011;6921;53.642;9.956;2022-11-06T04:11:39;6.73;;;3.13;;
13698;SDS011;6921;53.642;9.956;2022-11-06T04:14:01;8.53;;;3.20;;
13698;SDS011;6921;53.642;9.956;2022-11-06T04:16:06;8.17;;;3.67;;
13698;SDS011;6921;53.642;9.956;2022-11-06T04:18:11;5.40;;;3.00;;
13698;SDS011;6921;53.642;9.956;2022-11-06T04:20:16;3.70;;;2.93;;
13698;SDS011;6921;53.642;9.956;2022-11-06T04:22:38;7.00;;;3.10;;
13698;SDS011;6921;53.642;9.956;2022-11-06T04:24:53;5.23;;;3.40;;
13698;SDS011;6921;53.642;9.956;2022-11-06T04:27:20;3.87;;;3.10;;
13698;SDS011;6921;53.642;9.956;2022-11-06T04:29:28;6.77;;;3.03;;
13698;SDS011;6921;53.642;9.956;2022-11-06T04:31:34;7.33;;;3.37;;
13698;SDS011;6921;53.642;9.956;2022-11-06T04:33:41;4.67;;;3.20;;
13698;SDS011;6921;53.642;9.956;2022-11-06T04:35:49;3.40;;;3.10;;
13698;SDS011;6921;53.642;9.956;2022-11-06T04:37:57;3.47;;;3.10;;
13698;SDS011;6921;53.642;9.956;2022-11-06T04:40:06;4.17;;;2.90;;
13698;SDS011;6921;53.642;9.956;2022-11-06T04:42:11;4.20;;;2.90;;
13698;SDS011;6921;53.642;9.956;2022-11-06T04:44:18;6.07;;;3.17;;
13698;SDS011;6921;53.642;9.956;2022-11-06T04:46:24;4.60;;;3.23;;
13698;SDS011;6921;53.642;9.956;2022-11-06T04:48:29;4.07;;;3.40;;
13698;SDS011;6921;53.642;9.956;2022-11-06T04:50:33;3.37;;;2.93;;
13698;SDS011;6921;53.642;9.956;2022-11-06T04:52:38;5.17;;;3.30;;
13698;SDS011;6921;53.642;9.956;2022-11-06T04:54:43;5.43;;;2.87;;
13698;SDS011;6921;53.642;9.956;2022-11-06T04:56:47;4.77;;;3.07;;
13698;SDS011;6921;53.642;9.956;2022-11-06T04:58:51;4.67;;;2.90;;
13698;SDS011;6921;53.642;9.956;2022-11-06T05:00:54;6.33;;;3.00;;
13698;SDS011;6921;53.642;9.956;2022-11-06T05:02:57;5.77;;;3.23;;
13698;SDS011;6921;53.642;9.956;2022-11-06T05:05:00;5.77;;;3.00;;
13698;SDS011;6921;53.642;9.956;2022-11-06T05:07:04;5.67;;;3.00;;
13698;SDS011;6921;53.642;9.956;2022-11-06T05:09:07;3.47;;;2.77;;
13698;SDS011;6921;53.642;9.956;2022-11-06T05:11:10;4.20;;;2.83;;
13698;SDS011;6921;53.642;9.956;2022-11-06T05:13:15;5.50;;;3.10;;
13698;SDS011;6921;53.642;9.956;2022-11-06T05:15:18;5.17;;;2.73;;
13698;SDS011;6921;53.642;9.956;2022-11-06T05:17:21;6.63;;;3.53;;
13698;SDS011;6921;53.642;9.956;2022-11-06T05:19:24;4.57;;;3.10;;
13698;SDS011;6921;53.642;9.956;2022-11-06T05:21:28;2.83;;;2.53;;
13698;SDS011;6921;53.642;9.956;2022-11-06T05:23:48;5.17;;;3.07;;
13698;SDS011;6921;53.642;9.956;2022-11-06T05:25:52;4.77;;;2.63;;
13698;SDS011;6921;53.642;9.956;2022-11-06T05:27:55;3.97;;;2.80;;
13698;SDS011;6921;53.642;9.956;2022-11-06T05:30:00;4.53;;;2.90;;
13698;SDS011;6921;53.642;9.956;2022-11-06T05:32:03;5.80;;;2.97;;
13698;SDS011;6921;53.642;9.956;2022-11-06T05:34:07;4.37;;;3.10;;
13698;SDS011;6921;53.642;9.956;2022-11-06T05:36:10;6.90;;;2.80;;
13698;SDS011;6921;53.642;9.956;2022-11-06T05:38:13;6.27;;;2.90;;
13698;SDS011;6921;53.642;9.956;2022-11-06T05:40:17;5.57;;;2.70;;
13698;SDS011;6921;53.642;9.956;2022-11-06T05:42:20;4.63;;;2.87;;
13698;SDS011;6921;53.642;9.956;2022-11-06T05:44:23;5.50;;;2.67;;
13698;SDS011;6921;53.642;9.956;2022-11-06T05:46:28;5.30;;;3.20;;
13698;SDS011;6921;53.642;9.956;2022-11-06T05:48:49;4.03;;;2.73;;
13698;SDS011;6921;53.642;9.956;2022-11-06T05:50:52;3.33;;;2.77;;
13698;SDS011;6921;53.642;9.956;2022-11-06T05:52:56;5.40;;;3.10;;
13698;SDS011;6921;53.642;9.956;2022-11-06T05:54:59;3.37;;;2.97;;
13698;SDS011;6921;53.642;9.956;2022-11-06T05:57:02;4.17;;;2.90;;
13698;SDS011;6921;53.642;9.956;2022-11-06T05:59:05;5.67;;;3.00;;
13698;SDS011;6921;53.642;9.956;2022-11-06T06:01:09;6.40;;;3.17;;
13698;SDS011;6921;53.642;9.956;2022-11-06T06:03:14;3.43;;;2.63;;
13698;SDS011;6921;53.642;9.956;2022-11-06T06:05:17;4.47;;;2.70;;
13698;SDS011;6921;53.642;9.956;2022-11-06T06:07:20;4.83;;;2.97;;
13698;SDS011;6921;53.642;9.956;2022-11-06T06:09:23;5.40;;;3.37;;
13698;SDS011;6921;53.642;9.956;2022-11-06T06:11:26;6.03;;;3.40;;
13698;SDS011;6921;53.642;9.956;2022-11-06T06:13:30;5.17;;;3.27;;
13698;SDS011;6921;53.642;9.956;2022-11-06T06:15:33;5.73;;;3.97;;
13698;SDS011;6921;53.642;9.956;2022-11-06T06:17:36;5.90;;;3.47;;
13698;SDS011;6921;53.642;9.956;2022-11-06T06:19:41;5.53;;;3.30;;
13698;SDS011;6921;53.642;9.956;2022-11-06T06:21:44;8.23;;;3.93;;
13698;SDS011;6921;53.642;9.956;2022-11-06T06:23:47;5.33;;;3.60;;
13698;SDS011;6921;53.642;9.956;2022-11-06T06:25:51;7.33;;;3.80;;
13698;SDS011;6921;53.642;9.956;2022-11-06T06:27:55;6.37;;;3.67;;
13698;SDS011;6921;53.642;9.956;2022-11-06T06:29:59;4.20;;;3.10;;
13698;SDS011;6921;53.642;9.956;2022-11-06T06:32:02;7.33;;;3.67;;
13698;SDS011;6921;53.642;9.956;2022-11-06T06:34:08;7.80;;;3.23;;
13698;SDS011;6921;53.642;9.956;2022-11-06T06:36:12;4.43;;;3.30;;
13698;SDS011;6921;53.642;9.956;2022-11-06T06:38:16;6.70;;;3.93;;
13698;SDS011;6921;53.642;9.956;2022-11-06T06:40:19;6.17;;;3.27;;
13698;SDS011;6921;53.642;9.956;2022-11-06T06:42:23;5.00;;;3.53;;
13698;SDS011;6921;53.642;9.956;2022-11-06T06:44:31;8.03;;;3.80;;
13698;SDS011;6921;53.642;9.956;2022-11-06T06:46:34;6.33;;;3.93;;
13698;SDS011;6921;53.642;9.956;2022-11-06T06:48:37;6.10;;;3.80;;
13698;SDS011;6921;53.642;9.956;2022-11-06T06:50:41;8.67;;;4.07;;
13698;SDS011;6921;53.642;9.956;2022-11-06T06:52:45;4.93;;;3.17;;
13698;SDS011;6921;53.642;9.956;2022-11-06T06:54:49;8.53;;;3.73;;
13698;SDS011;6921;53.642;9.956;2022-11-06T06:56:53;7.00;;;3.33;;
13698;SDS011;6921;53.642;9.956;2022-11-06T06:58:56;8.43;;;3.60;;
13698;SDS011;6921;53.642;9.956;2022-11-06T07:01:01;5.03;;;2.93;;
13698;SDS011;6921;53.642;9.956;2022-11-06T07:03:05;6.60;;;3.40;;
13698;SDS011;6921;53.642;9.956;2022-11-06T07:05:08;4.90;;;3.40;;
13698;SDS011;6921;53.642;9.956;2022-11-06T07:07:12;6.40;;;3.33;;
13698;SDS011;6921;53.642;9.956;2022-11-06T07:09:16;5.30;;;3.30;;
13698;SDS011;6921;53.642;9.956;2022-11-06T07:11:21;6.33;;;3.03;;
13698;SDS011;6921;53.642;9.956;2022-11-06T07:13:25;5.17;;;3.00;;
13698;SDS011;6921;53.642;9.956;2022-11-06T07:15:35;5.40;;;2.93;;
13698;SDS011;6921;53.642;9.956;2022-11-06T07:17:38;3.97;;;2.97;;
13698;SDS011;6921;53.642;9.956;2022-11-06T07:19:42;3.90;;;3.00;;
13698;SDS011;6921;53.642;9.956;2022-11-06T07:21:45;6.53;;;3.30;;
13698;SDS011;6921;53.642;9.956;2022-11-06T07:23:48;4.90;;;2.90;;
13698;SDS011;6921;53.642;9.956;2022-11-06T07:25:53;9.57;;;3.50;;
13698;SDS011;6921;53.642;9.956;2022-11-06T07:27:58;6.03;;;3.20;;
13698;SDS011;6921;53.642;9.956;2022-11-06T07:30:03;8.93;;;3.17;;
13698;SDS011;6921;53.642;9.956;2022-11-06T07:32:07;4.40;;;2.93;;
13698;SDS011;6921;53.642;9.956;2022-11-06T07:34:10;4.63;;;3.17;;
13698;SDS011;6921;53.642;9.956;2022-11-06T07:36:13;8.80;;;3.10;;
13698;SDS011;6921;53.642;9.956;2022-11-06T07:38:17;4.23;;;2.70;;
13698;SDS011;6921;53.642;9.956;2022-11-06T07:40:20;5.97;;;3.20;;
13698;SDS011;6921;53.642;9.956;2022-11-06T07:42:25;3.80;;;3.00;;
13698;SDS011;6921;53.642;9.956;2022-11-06T07:44:29;5.03;;;2.73;;
13698;SDS011;6921;53.642;9.956;2022-11-06T07:46:32;6.20;;;2.90;;
13698;SDS011;6921;53.642;9.956;2022-11-06T07:48:36;4.23;;;2.80;;
13698;SDS011;6921;53.642;9.956;2022-11-06T07:50:39;5.17;;;3.30;;
13698;SDS011;6921;53.642;9.956;2022-11-06T07:52:43;4.17;;;2.90;;
13698;SDS011;6921;53.642;9.956;2022-11-06T07:54:46;5.27;;;3.00;;
13698;SDS011;6921;53.642;9.956;2022-11-06T07:56:49;5.20;;;2.87;;
13698;SDS011;6921;53.642;9.956;2022-11-06T07:58:54;4.67;;;2.60;;
13698;SDS011;6921;53.642;9.956;2022-11-06T08:00:57;3.30;;;2.40;;
13698;SDS011;6921;53.642;9.956;2022-11-06T08:03:01;4.77;;;2.20;;
13698;SDS011;6921;53.642;9.956;2022-11-06T08:05:04;7.07;;;2.80;;
13698;SDS011;6921;53.642;9.956;2022-11-06T08:07:07;5.97;;;2.90;;
13698;SDS011;6921;53.642;9.956;2022-11-06T08:09:11;4.97;;;2.50;;
13698;SDS011;6921;53.642;9.956;2022-11-06T08:11:14;7.83;;;3.17;;
13698;SDS011;6921;53.642;9.956;2022-11-06T08:13:18;4.63;;;2.57;;
13698;SDS011;6921;53.642;9.956;2022-11-06T08:15:22;8.47;;;2.70;;
13698;SDS011;6921;53.642;9.956;2022-11-06T08:17:26;3.17;;;2.60;;
13698;SDS011;6921;53.642;9.956;2022-11-06T08:19:30;4.30;;;2.70;;
13698;SDS011;6921;53.642;9.956;2022-11-06T08:21:33;6.83;;;2.53;;
13698;SDS011;6921;53.642;9.956;2022-11-06T08:23:36;6.20;;;2.57;;
13698;SDS011;6921;53.642;9.956;2022-11-06T08:25:39;5.47;;;2.77;;
13698;SDS011;6921;53.642;9.956;2022-11-06T08:27:43;3.57;;;2.50;;
13698;SDS011;6921;53.642;9.956;2022-11-06T08:29:46;2.37;;;2.07;;
13698;SDS011;6921;53.642;9.956;2022-11-06T08:31:51;4.60;;;2.20;;
13698;SDS011;6921;53.642;9.956;2022-11-06T08:33:54;4.07;;;2.27;;
13698;SDS011;6921;53.642;9.956;2022-11-06T08:35:59;5.93;;;2.27;;
13698;SDS011;6921;53.642;9.956;2022-11-06T08:38:03;5.17;;;2.40;;
13698;SDS011;6921;53.642;9.956;2022-11-06T08:40:07;4.27;;;2.60;;
13698;SDS011;6921;53.642;9.956;2022-11-06T08:42:10;4.17;;;2.47;;
13698;SDS011;6921;53.642;9.956;2022-11-06T08:44:14;7.90;;;2.73;;
13698;SDS011;6921;53.642;9.956;2022-11-06T08:46:17;3.70;;;2.30;;
13698;SDS011;6921;53.642;9.956;2022-11-06T08:48:22;3.90;;;2.33;;
13698;SDS011;6921;53.642;9.956;2022-11-06T08:50:25;6.03;;;2.70;;
13698;SDS011;6921;53.642;9.956;2022-11-06T08:52:28;4.07;;;2.37;;
13698;SDS011;6921;53.642;9.956;2022-11-06T08:54:34;3.80;;;2.40;;
13698;SDS011;6921;53.642;9.956;2022-11-06T08:56:37;6.37;;;2.30;;
13698;SDS011;6921;53.642;9.956;2022-11-06T08:58:40;7.43;;;2.47;;
13698;SDS011;6921;53.642;9.956;2022-11-06T09:00:44;3.77;;;2.50;;
13698;SDS011;6921;53.642;9.956;2022-11-06T09:02:47;5.53;;;2.40;;
13698;SDS011;6921;53.642;9.956;2022-11-06T09:04:52;4.03;;;2.37;;
13698;SDS011;6921;53.642;9.956;2022-11-06T09:06:56;4.07;;;2.10;;
13698;SDS011;6921;53.642;9.956;2022-11-06T09:08:59;3.40;;;2.27;;
13698;SDS011;6921;53.642;9.956;2022-11-06T09:11:03;3.20;;;2.23;;
13698;SDS011;6921;53.642;9.956;2022-11-06T09:13:08;3.75;;;1.90;;
13698;SDS011;6921;53.642;9.956;2022-11-06T09:15:11;6.03;;;2.20;;
13698;SDS011;6921;53.642;9.956;2022-11-06T09:17:15;2.65;;;2.13;;
13698;SDS011;6921;53.642;9.956;2022-11-06T09:19:23;2.60;;;2.00;;
13698;SDS011;6921;53.642;9.956;2022-11-06T09:21:27;2.70;;;1.92;;
13698;SDS011;6921;53.642;9.956;2022-11-06T09:23:31;3.83;;;1.95;;
13698;SDS011;6921;53.642;9.956;2022-11-06T09:25:34;2.45;;;2.00;;
13698;SDS011;6921;53.642;9.956;2022-11-06T09:27:41;3.08;;;1.98;;
13698;SDS011;6921;53.642;9.956;2022-11-06T09:29:44;2.83;;;1.83;;
13698;SDS011;6921;53.642;9.956;2022-11-06T09:31:49;4.05;;;1.77;;
13698;SDS011;6921;53.642;9.956;2022-11-06T09:33:52;3.10;;;2.00;;
13698;SDS011;6921;53.642;9.956;2022-11-06T09:35:56;3.83;;;2.00;;
13698;SDS011;6921;53.642;9.956;2022-11-06T09:38:01;2.80;;;1.88;;
13698;SDS011;6921;53.642;9.956;2022-11-06T09:40:04;4.45;;;1.92;;
13698;SDS011;6921;53.642;9.956;2022-11-06T09:42:11;3.75;;;1.92;;
13698;SDS011;6921;53.642;9.956;2022-11-06T09:44:21;7.28;;;2.13;;
13698;SDS011;6921;53.642;9.956;2022-11-06T09:46:28;3.95;;;2.25;;
13698;SDS011;6921;53.642;9.956;2022-11-06T09:48:33;5.05;;;1.92;;
13698;SDS011;6921;53.642;9.956;2022-11-06T09:50:39;6.03;;;2.20;;
13698;SDS011;6921;53.642;9.956;2022-11-06T09:52:44;3.40;;;2.00;;
13698;SDS011;6921;53.642;9.956;2022-11-06T09:54:50;3.83;;;2.17;;
13698;SDS011;6921;53.642;9.956;2022-11-06T09:56:58;3.58;;;2.00;;
13698;SDS011;6921;53.642;9.956;2022-11-06T09:59:04;4.72;;;2.05;;
13698;SDS011;6921;53.642;9.956;2022-11-06T10:01:11;4.18;;;1.92;;
13698;SDS011;6921;53.642;9.956;2022-11-06T10:03:23;2.47;;;1.48;;
13698;SDS011;6921;53.642;9.956;2022-11-06T10:05:29;4.20;;;1.80;;
13698;SDS011;6921;53.642;9.956;2022-11-06T10:07:33;3.05;;;1.67;;
13698;SDS011;6921;53.642;9.956;2022-11-06T10:09:37;3.10;;;1.98;;
13698;SDS011;6921;53.642;9.956;2022-11-06T10:11:47;3.83;;;1.80;;
13698;SDS011;6921;53.642;9.956;2022-11-06T10:13:52;5.55;;;1.98;;
13698;SDS011;6921;53.642;9.956;2022-11-06T10:15:58;2.92;;;1.58;;
13698;SDS011;6921;53.642;9.956;2022-11-06T10:18:06;3.13;;;1.83;;
13698;SDS011;6921;53.642;9.956;2022-11-06T10:20:14;2.58;;;1.65;;
13698;SDS011;6921;53.642;9.956;2022-11-06T10:22:27;4.78;;;1.80;;
13698;SDS011;6921;53.642;9.956;2022-11-06T10:24:36;2.85;;;1.55;;
13698;SDS011;6921;53.642;9.956;2022-11-06T10:26:44;3.47;;;1.65;;
13698;SDS011;6921;53.642;9.956;2022-11-06T10:28:53;3.75;;;1.70;;
13698;SDS011;6921;53.642;9.956;2022-11-06T10:30:59;4.40;;;1.58;;
13698;SDS011;6921;53.642;9.956;2022-11-06T10:33:15;3.15;;;1.45;;
13698;SDS011;6921;53.642;9.956;2022-11-06T10:35:23;3.53;;;1.85;;
13698;SDS011;6921;53.642;9.956;2022-11-06T10:37:28;4.22;;;1.70;;
13698;SDS011;6921;53.642;9.956;2022-11-06T10:39:33;4.18;;;1.80;;
13698;SDS011;6921;53.642;9.956;2022-11-06T10:41:37;5.05;;;1.70;;
13698;SDS011;6921;53.642;9.956;2022-11-06T10:43:42;2.55;;;1.67;;
13698;SDS011;6921;53.642;9.956;2022-11-06T10:45:50;2.97;;;1.48;;
13698;SDS011;6921;53.642;9.956;2022-11-06T10:47:55;4.40;;;1.70;;
13698;SDS011;6921;53.642;9.956;2022-11-06T10:50:00;3.22;;;1.70;;
13698;SDS011;6921;53.642;9.956;2022-11-06T10:52:11;3.63;;;1.38;;
13698;SDS011;6921;53.642;9.956;2022-11-06T10:54:20;1.77;;;1.30;;
13698;SDS011;6921;53.642;9.956;2022-11-06T10:56:32;1.95;;;1.58;;
13698;SDS011;6921;53.642;9.956;2022-11-06T10:58:37;3.28;;;1.30;;
13698;SDS011;6921;53.642;9.956;2022-11-06T11:00:40;1.77;;;1.48;;
13698;SDS011;6921;53.642;9.956;2022-11-06T11:02:45;5.30;;;1.90;;
13698;SDS011;6921;53.642;9.956;2022-11-06T11:04:49;3.90;;;1.55;;
13698;SDS011;6921;53.642;9.956;2022-11-06T11:07:00;3.25;;;1.33;;
13698;SDS011;6921;53.642;9.956;2022-11-06T11:09:27;3.50;;;1.48;;
13698;SDS011;6921;53.642;9.956;2022-11-06T11:11:31;3.13;;;1.13;;
13698;SDS011;6921;53.642;9.956;2022-11-06T11:13:34;3.33;;;1.45;;
13698;SDS011;6921;53.642;9.956;2022-11-06T11:15:42;2.25;;;1.30;;
13698;SDS011;6921;53.642;9.956;2022-11-06T11:20:27;2.97;;;1.55;;
13698;SDS011;6921;53.642;9.956;2022-11-06T11:22:31;2.78;;;1.30;;
13698;SDS011;6921;53.642;9.956;2022-11-06T11:24:35;2.97;;;1.50;;
13698;SDS011;6921;53.642;9.956;2022-11-06T11:26:38;3.58;;;1.30;;
13698;SDS011;6921;53.642;9.956;2022-11-06T11:28:49;2.45;;;1.48;;
13698;SDS011;6921;53.642;9.956;2022-11-06T11:30:53;2.38;;;1.15;;
13698;SDS011;6921;53.642;9.956;2022-11-06T11:33:00;2.20;;;1.30;;
13698;SDS011;6921;53.642;9.956;2022-11-06T11:35:16;4.35;;;1.38;;
13698;SDS011;6921;53.642;9.956;2022-11-06T11:37:21;4.22;;;1.42;;
13698;SDS011;6921;53.642;9.956;2022-11-06T11:39:29;2.35;;;1.35;;
13698;SDS011;6921;53.642;9.956;2022-11-06T11:41:33;3.15;;;1.60;;
13698;SDS011;6921;53.642;9.956;2022-11-06T11:43:35;1.75;;;1.33;;
13698;SDS011;6921;53.642;9.956;2022-11-06T11:45:39;2.63;;;1.45;;
13698;SDS011;6921;53.642;9.956;2022-11-06T11:47:42;3.55;;;1.55;;
13698;SDS011;6921;53.642;9.956;2022-11-06T11:49:48;1.98;;;1.10;;
13698;SDS011;6921;53.642;9.956;2022-11-06T11:51:51;2.78;;;1.33;;
13698;SDS011;6921;53.642;9.956;2022-11-06T11:53:56;1.77;;;1.20;;
13698;SDS011;6921;53.642;9.956;2022-11-06T11:56:00;2.80;;;1.38;;
13698;SDS011;6921;53.642;9.956;2022-11-06T11:58:05;3.53;;;1.30;;
13698;SDS011;6921;53.642;9.956;2022-11-06T12:00:18;2.47;;;1.45;;
13698;SDS011;6921;53.642;9.956;2022-11-06T12:02:24;1.52;;;1.30;;
13698;SDS011;6921;53.642;9.956;2022-11-06T12:04:30;2.72;;;1.40;;
13698;SDS011;6921;53.642;9.956;2022-11-06T12:06:36;2.30;;;1.30;;
13698;SDS011;6921;53.642;9.956;2022-11-06T12:08:51;3.25;;;1.40;;
13698;SDS011;6921;53.642;9.956;2022-11-06T12:10:59;2.30;;;1.45;;
13698;SDS011;6921;53.642;9.956;2022-11-06T12:13:04;2.70;;;1.23;;
13698;SDS011;6921;53.642;9.956;2022-11-06T12:15:16;2.25;;;1.58;;
13698;SDS011;6921;53.642;9.956;2022-11-06T12:17:22;2.08;;;1.25;;
13698;SDS011;6921;53.642;9.956;2022-11-06T12:19:29;5.53;;;1.38;;
13698;SDS011;6921;53.642;9.956;2022-11-06T12:21:34;2.58;;;1.48;;
13698;SDS011;6921;53.642;9.956;2022-11-06T12:23:42;2.65;;;1.33;;
13698;SDS011;6921;53.642;9.956;2022-11-06T12:25:50;2.10;;;1.20;;
13698;SDS011;6921;53.642;9.956;2022-11-06T12:27:56;3.42;;;1.00;;
13698;SDS011;6921;53.642;9.956;2022-11-06T12:30:01;3.75;;;1.23;;
13698;SDS011;6921;53.642;9.956;2022-11-06T12:32:08;2.10;;;1.20;;
13698;SDS011;6921;53.642;9.956;2022-11-06T12:34:17;2.67;;;1.25;;
13698;SDS011;6921;53.642;9.956;2022-11-06T12:36:23;2.40;;;1.23;;
13698;SDS011;6921;53.642;9.956;2022-11-06T12:38:30;2.72;;;1.40;;
13698;SDS011;6921;53.642;9.956;2022-11-06T12:40:37;2.03;;;1.25;;
13698;SDS011;6921;53.642;9.956;2022-11-06T12:42:42;6.03;;;1.35;;
13698;SDS011;6921;53.642;9.956;2022-11-06T12:44:48;3.38;;;1.20;;
13698;SDS011;6921;53.642;9.956;2022-11-06T12:46:52;3.65;;;1.20;;
13698;SDS011;6921;53.642;9.956;2022-11-06T12:49:07;2.20;;;1.20;;
13698;SDS011;6921;53.642;9.956;2022-11-06T12:51:19;4.80;;;1.48;;